createdAt,value
2023-05-10T00:00:11.060Z,10
2023-05-10T00:01:12.007Z,9.9
2023-05-10T00:02:13.136Z,9.8
2023-05-10T00:03:14.085Z,9.8
2023-05-10T00:04:15.157Z,9.8
2023-05-10T00:05:16.035Z,9.8
2023-05-10T00:06:17.075Z,9.9
2023-05-10T00:07:18.055Z,9.9
2023-05-10T00:08:19.020Z,10
2023-05-10T00:09:20.049Z,10
2023-05-10T00:10:20.976Z,10
2023-05-10T00:11:23.101Z,10
2023-05-10T00:12:23.029Z,10
2023-05-10T00:13:24.148Z,9.9
2023-05-10T00:14:25.059Z,9.9
2023-05-10T00:15:26.070Z,9.8
2023-05-10T00:16:27.035Z,9.8
2023-05-10T00:17:28.073Z,9.7
2023-05-10T00:18:29.025Z,9.8
2023-05-10T00:19:30.059Z,9.8
2023-05-10T00:20:31.048Z,9.8
2023-05-10T00:21:32.049Z,9.8
2023-05-10T00:22:33.052Z,9.9
2023-05-10T00:23:34.048Z,9.9
2023-05-10T00:24:35.011Z,9.9
2023-05-10T00:25:36.090Z,9.9
2023-05-10T00:26:37.029Z,9.8
2023-05-10T00:27:38.058Z,9.9
2023-05-10T00:28:39.031Z,9.8
2023-05-10T00:29:40.081Z,9.9
2023-05-10T00:30:41.034Z,9.9
2023-05-10T00:31:42.094Z,9.9
2023-05-10T00:32:43.114Z,9.9
2023-05-10T00:33:44.056Z,9.9
2023-05-10T00:34:45.077Z,9.8
2023-05-10T00:35:46.050Z,9.8
2023-05-10T00:36:47.083Z,9.7
2023-05-10T00:37:48.050Z,9.7
2023-05-10T00:38:49.054Z,9.7
2023-05-10T00:39:50.055Z,9.6
2023-05-10T00:40:51.052Z,9.6
2023-05-10T00:41:52.082Z,9.6
2023-05-10T00:42:53.039Z,9.6
2023-05-10T00:43:54.078Z,9.7
2023-05-10T00:44:55.179Z,9.7
2023-05-10T00:45:56.066Z,9.7
2023-05-10T00:46:57.112Z,9.8
2023-05-10T00:47:58.022Z,9.8
2023-05-10T00:48:59.038Z,9.7
2023-05-10T00:50:00.088Z,9.6
2023-05-10T00:51:01.071Z,9.7
2023-05-10T00:52:02.071Z,9.7
2023-05-10T00:53:03.032Z,9.7
2023-05-10T00:54:04.071Z,9.7
2023-05-10T00:55:05.075Z,9.6
2023-05-10T00:56:06.052Z,9.5
2023-05-10T00:57:07.081Z,9.4
2023-05-10T00:58:08.071Z,9.3
2023-05-10T00:59:09.061Z,9.3
2023-05-10T01:00:10.118Z,9.3
2023-05-10T01:01:11.062Z,9.3
2023-05-10T01:02:12.130Z,9.3
2023-05-10T01:03:13.116Z,9.3
2023-05-10T01:04:14.076Z,9.4
2023-05-10T01:05:15.057Z,9.3
2023-05-10T01:06:16.073Z,9.3
2023-05-10T01:07:17.073Z,9.4
2023-05-10T01:08:18.073Z,9.4
2023-05-10T01:09:19.147Z,9.5
2023-05-10T01:10:20.120Z,9.5
2023-05-10T01:11:21.033Z,9.6
2023-05-10T01:12:22.131Z,9.5
2023-05-10T01:13:23.047Z,9.5
2023-05-10T01:14:24.053Z,9.4
2023-05-10T01:15:25.138Z,9.4
2023-05-10T01:16:26.050Z,9.3
2023-05-10T01:17:27.095Z,9.3
2023-05-10T01:18:28.054Z,9.3
2023-05-10T01:19:29.135Z,9.3
2023-05-10T01:20:30.076Z,9.4
2023-05-10T01:21:31.075Z,9.3
2023-05-10T01:22:32.060Z,9.3
2023-05-10T01:23:33.080Z,9.3
2023-05-10T01:24:34.456Z,9.3
2023-05-10T01:25:35.074Z,9.4
2023-05-10T01:26:36.088Z,9.4
2023-05-10T01:27:37.075Z,9.4
2023-05-10T01:28:38.060Z,9.2
2023-05-10T01:29:39.100Z,9.2
2023-05-10T01:30:40.119Z,9.3
2023-05-10T01:31:41.127Z,9.3
2023-05-10T01:32:42.154Z,9.3
2023-05-10T01:36:43.124Z,9.2
2023-05-10T01:37:44.043Z,9.1
2023-05-10T01:38:45.038Z,9
2023-05-10T01:39:46.103Z,9
2023-05-10T01:40:47.124Z,9
2023-05-10T01:41:48.101Z,8.9
2023-05-10T01:42:49.085Z,8.9
2023-05-10T01:43:50.083Z,8.8
2023-05-10T01:44:51.120Z,8.8
2023-05-10T01:45:52.188Z,8.7
2023-05-10T01:46:53.112Z,8.8
2023-05-10T01:47:54.479Z,8.7
2023-05-10T01:48:55.099Z,8.8
2023-05-10T01:49:56.099Z,8.9
2023-05-10T01:50:57.098Z,8.8
2023-05-10T01:51:58.078Z,8.8
2023-05-10T01:52:59.097Z,8.9
2023-05-10T01:54:00.100Z,8.9
2023-05-10T01:55:01.125Z,8.9
2023-05-10T01:56:02.109Z,8.8
2023-05-10T01:57:03.099Z,8.8
2023-05-10T01:58:04.118Z,8.8
2023-05-10T01:59:05.106Z,8.9
2023-05-10T02:00:06.176Z,8.9
2023-05-10T02:01:07.177Z,8.8
2023-05-10T02:02:08.106Z,8.7
2023-05-10T02:03:09.205Z,8.6
2023-05-10T02:04:10.174Z,8.7
2023-05-10T02:05:11.097Z,8.7
2023-05-10T02:06:12.117Z,8.8
2023-05-10T02:07:13.043Z,8.7
2023-05-10T02:08:14.131Z,8.8
2023-05-10T02:09:15.142Z,8.8
2023-05-10T02:10:16.383Z,8.8
2023-05-10T02:11:17.183Z,8.8
2023-05-10T02:12:18.115Z,8.7
2023-05-10T02:13:19.131Z,8.7
2023-05-10T02:14:20.143Z,8.7
2023-05-10T02:15:21.082Z,8.7
2023-05-10T02:16:22.151Z,8.7
2023-05-10T02:17:23.166Z,8.7
2023-05-10T02:18:24.102Z,8.7
2023-05-10T02:19:25.120Z,8.7
2023-05-10T02:20:26.142Z,8.7
2023-05-10T02:21:27.084Z,8.7
2023-05-10T02:22:28.119Z,8.7
2023-05-10T02:23:29.119Z,8.6
2023-05-10T02:24:30.069Z,8.7
2023-05-10T02:25:31.153Z,8.8
2023-05-10T02:26:32.098Z,8.8
2023-05-10T02:27:33.099Z,8.8
2023-05-10T02:28:34.106Z,8.9
2023-05-10T02:29:35.144Z,8.8
2023-05-10T02:30:36.120Z,8.7
2023-05-10T02:31:37.176Z,8.6
2023-05-10T02:32:38.161Z,8.6
2023-05-10T02:33:39.113Z,8.6
2023-05-10T02:34:40.100Z,8.6
2023-05-10T02:35:41.119Z,8.5
2023-05-10T02:36:42.179Z,8.5
2023-05-10T02:37:43.120Z,8.5
2023-05-10T02:38:44.119Z,8.5
2023-05-10T02:39:45.104Z,8.5
2023-05-10T02:40:46.100Z,8.5
2023-05-10T02:41:47.158Z,8.6
2023-05-10T02:42:48.122Z,8.6
2023-05-10T02:43:49.169Z,8.6
2023-05-10T02:44:50.124Z,8.6
2023-05-10T02:45:51.173Z,8.6
2023-05-10T02:46:52.126Z,8.7
2023-05-10T02:47:53.147Z,8.6
2023-05-10T02:48:54.120Z,8.7
2023-05-10T02:49:55.119Z,8.6
2023-05-10T02:50:56.140Z,8.7
2023-05-10T02:51:57.104Z,8.7
2023-05-10T02:52:58.197Z,8.6
2023-05-10T02:53:59.141Z,8.6
2023-05-10T02:55:00.175Z,8.7
2023-05-10T02:56:01.172Z,8.6
2023-05-10T02:57:02.112Z,8.5
2023-05-10T02:58:03.183Z,8.5
2023-05-10T02:59:04.160Z,8.6
2023-05-10T03:00:05.122Z,8.6
2023-05-10T03:01:06.201Z,8.5
2023-05-10T03:02:07.146Z,8.5
2023-05-10T03:03:08.179Z,8.5
2023-05-10T03:04:09.154Z,8.5
2023-05-10T03:05:10.143Z,8.6
2023-05-10T03:06:11.121Z,8.6
2023-05-10T03:07:12.243Z,8.5
2023-05-10T03:08:13.181Z,8.5
2023-05-10T03:09:14.123Z,8.5
2023-05-10T03:10:15.333Z,8.5
2023-05-10T03:11:16.203Z,8.4
2023-05-10T03:12:17.211Z,8.4
2023-05-10T03:13:18.235Z,8.4
2023-05-10T03:14:19.185Z,8.3
2023-05-10T03:15:20.152Z,8.4
2023-05-10T03:16:21.136Z,8.4
2023-05-10T03:17:22.169Z,8.4
2023-05-10T03:18:23.143Z,8.5
2023-05-10T03:19:24.205Z,8.5
2023-05-10T03:20:25.167Z,8.5
2023-05-10T03:21:26.144Z,8.6
2023-05-10T03:22:27.182Z,8.5
2023-05-10T03:23:28.159Z,8.5
2023-05-10T03:24:29.173Z,8.6
2023-05-10T03:25:30.126Z,8.6
2023-05-10T03:26:31.085Z,8.7
2023-05-10T03:27:32.114Z,8.6
2023-05-10T03:28:33.143Z,8.4
2023-05-10T03:29:34.166Z,8.4
2023-05-10T03:30:35.146Z,8.3
2023-05-10T03:31:36.186Z,8.4
2023-05-10T03:32:37.333Z,8.4
2023-05-10T03:33:38.124Z,8.3
2023-05-10T03:34:39.170Z,8.3
2023-05-10T03:35:40.102Z,8.3
2023-05-10T03:36:41.143Z,8.4
2023-05-10T03:37:42.147Z,8.4
2023-05-10T03:38:43.186Z,8.4
2023-05-10T03:39:44.187Z,8.3
2023-05-10T03:40:45.162Z,8.3
2023-05-10T03:41:46.206Z,8.3
2023-05-10T03:42:47.185Z,8.3
2023-05-10T03:43:48.164Z,8.4
2023-05-10T03:44:49.124Z,8.4
2023-05-10T03:45:50.200Z,8.3
2023-05-10T03:46:51.149Z,8.4
2023-05-10T03:47:52.193Z,8.4
2023-05-10T03:48:53.190Z,8.4
2023-05-10T03:49:54.170Z,8.3
2023-05-10T03:50:55.187Z,8.3
2023-05-10T03:51:56.144Z,8.3
2023-05-10T03:52:57.163Z,8.3
2023-05-10T03:53:58.182Z,8.3
2023-05-10T03:54:59.167Z,8.3
2023-05-10T03:56:00.163Z,8.4
2023-05-10T03:57:01.224Z,8.4
2023-05-10T03:58:02.198Z,8.5
2023-05-10T03:59:03.146Z,8.6
2023-05-10T04:00:04.358Z,8.5
2023-05-10T04:01:05.155Z,8.6
2023-05-10T04:02:06.233Z,8.5
2023-05-10T04:03:07.303Z,8.6
2023-05-10T04:04:08.173Z,8.6
2023-05-10T04:05:09.147Z,8.7
2023-05-10T04:06:10.235Z,8.7
2023-05-10T04:07:11.185Z,8.7
2023-05-10T04:08:12.452Z,8.8
2023-05-10T04:09:13.165Z,8.8
2023-05-10T04:10:14.379Z,8.8
2023-05-10T04:11:15.145Z,8.8
2023-05-10T04:12:16.165Z,8.8
2023-05-10T04:13:17.210Z,8.9
2023-05-10T04:14:18.249Z,8.9
2023-05-10T04:15:19.176Z,8.9
2023-05-10T04:16:20.317Z,8.9
2023-05-10T04:17:21.188Z,8.9
2023-05-10T04:18:22.256Z,8.9
2023-05-10T04:19:23.153Z,8.8
2023-05-10T04:20:24.166Z,8.8
2023-05-10T04:21:25.146Z,8.7
2023-05-10T04:22:26.207Z,8.8
2023-05-10T04:23:27.212Z,8.8
2023-05-10T04:24:28.203Z,8.8
2023-05-10T04:25:29.184Z,8.8
2023-05-10T04:26:30.184Z,8.8
2023-05-10T04:27:31.182Z,8.8
2023-05-10T04:28:32.203Z,8.8
2023-05-10T04:29:33.124Z,8.8
2023-05-10T04:30:34.187Z,8.9
2023-05-10T04:31:35.182Z,8.9
2023-05-10T04:32:36.204Z,9
2023-05-10T04:33:37.229Z,9
2023-05-10T04:34:38.165Z,9
2023-05-10T04:35:39.161Z,9
2023-05-10T04:36:40.162Z,9.1
2023-05-10T04:37:41.203Z,9.2
2023-05-10T04:38:42.225Z,9.1
2023-05-10T04:39:43.206Z,9.2
2023-05-10T04:40:44.210Z,9.3
2023-05-10T04:41:45.181Z,9.4
2023-05-10T04:42:46.162Z,9.4
2023-05-10T04:43:47.166Z,9.4
2023-05-10T04:44:48.122Z,9.4
2023-05-10T04:45:49.181Z,9.4
2023-05-10T04:46:50.208Z,9.2
2023-05-10T04:47:51.226Z,9.2
2023-05-10T04:48:52.319Z,9.2
2023-05-10T04:49:53.179Z,9.2
2023-05-10T04:50:54.213Z,9.2
2023-05-10T04:51:55.181Z,9.3
2023-05-10T04:52:56.246Z,9.4
2023-05-10T04:54:05.751Z,9.4
2023-05-10T04:54:58.210Z,9.5
2023-05-10T04:55:59.186Z,9.6
2023-05-10T04:57:00.230Z,9.7
2023-05-10T04:58:01.221Z,9.8
2023-05-10T04:59:02.227Z,9.7
2023-05-10T05:00:03.200Z,9.8
2023-05-10T05:01:04.184Z,9.8
2023-05-10T05:02:05.202Z,9.9
2023-05-10T05:03:06.217Z,9.9
2023-05-10T05:04:07.226Z,9.9
2023-05-10T05:05:08.230Z,9.8
2023-05-10T05:06:09.175Z,9.9
2023-05-10T05:07:10.221Z,10
2023-05-10T05:08:11.220Z,9.9
2023-05-10T05:09:12.772Z,10.1
2023-05-10T05:10:14.319Z,9.9
2023-05-10T05:11:15.188Z,9.8
2023-05-10T05:12:16.221Z,9.9
2023-05-10T05:13:17.218Z,10
2023-05-10T05:14:18.188Z,10.1
2023-05-10T05:15:19.248Z,10
2023-05-10T05:16:20.263Z,10.1
2023-05-10T05:17:21.220Z,10.2
2023-05-10T05:18:22.206Z,10.3
2023-05-10T05:19:23.269Z,10.3
2023-05-10T05:20:24.229Z,10.4
2023-05-10T05:21:25.221Z,10.3
2023-05-10T05:22:26.237Z,10.4
2023-05-10T05:23:27.262Z,10.4
2023-05-10T05:24:28.213Z,10.5
2023-05-10T05:25:29.155Z,10.6
2023-05-10T05:26:30.196Z,10.8
2023-05-10T05:27:31.220Z,10.9
2023-05-10T05:28:32.204Z,11
2023-05-10T05:29:33.206Z,11.1
2023-05-10T05:30:34.202Z,11.2
2023-05-10T05:31:35.233Z,11.4
2023-05-10T05:32:36.227Z,11.4
2023-05-10T05:33:37.158Z,11.3
2023-05-10T05:34:38.246Z,11.2
2023-05-10T05:35:39.300Z,11.2
2023-05-10T05:36:40.222Z,11.1
2023-05-10T05:37:41.242Z,11
2023-05-10T05:38:42.229Z,11
2023-05-10T05:39:43.225Z,11.1
2023-05-10T05:40:44.296Z,11.2
2023-05-10T05:41:45.181Z,11.1
2023-05-10T05:42:46.299Z,11
2023-05-10T05:43:47.235Z,11
2023-05-10T05:44:48.240Z,11.1
2023-05-10T05:45:49.263Z,11
2023-05-10T05:46:50.239Z,10.8
2023-05-10T05:47:51.256Z,10.8
2023-05-10T05:48:52.214Z,10.8
2023-05-10T05:49:53.287Z,10.8
2023-05-10T05:50:54.273Z,10.7
2023-05-10T05:51:55.223Z,10.7
2023-05-10T05:52:56.235Z,10.8
2023-05-10T05:53:57.242Z,10.8
2023-05-10T05:54:58.285Z,10.9
2023-05-10T05:55:59.227Z,11
2023-05-10T05:57:01.288Z,11.1
2023-05-10T05:58:01.261Z,11.2
2023-05-10T05:59:02.264Z,11.3
2023-05-10T06:00:03.279Z,11.4
2023-05-10T06:01:09.227Z,11.4
2023-05-10T06:02:10.234Z,11.4
2023-05-10T06:03:11.251Z,11.3
2023-05-10T06:04:12.294Z,11.2
2023-05-10T06:05:13.293Z,11.2
2023-05-10T06:06:14.243Z,11.1
2023-05-10T06:07:15.263Z,11.3
2023-05-10T06:08:16.246Z,11.3
2023-05-10T06:09:17.263Z,11.1
2023-05-10T06:10:18.273Z,11.2
2023-05-10T06:11:19.264Z,11.2
2023-05-10T06:12:20.243Z,11.3
2023-05-10T06:13:21.311Z,11.4
2023-05-10T06:14:22.230Z,11.5
2023-05-10T06:15:23.241Z,11.6
2023-05-10T06:16:24.227Z,11.7
2023-05-10T06:17:25.247Z,11.7
2023-05-10T06:18:26.313Z,11.7
2023-05-10T06:19:27.253Z,11.7
2023-05-10T06:20:28.356Z,11.7
2023-05-10T06:21:29.196Z,11.6
2023-05-10T06:22:30.164Z,11.5
2023-05-10T06:23:31.247Z,11.3
2023-05-10T06:24:32.240Z,11.3
2023-05-10T06:25:33.215Z,11.1
2023-05-10T06:26:34.258Z,11.1
2023-05-10T06:27:35.222Z,11.2
2023-05-10T06:28:36.644Z,11.4
2023-05-10T06:29:38.362Z,11.6
2023-05-10T06:30:39.244Z,11.7
2023-05-10T06:31:40.290Z,11.8
2023-05-10T06:32:41.581Z,11.9
2023-05-10T06:33:42.242Z,12
2023-05-10T06:34:43.302Z,12
2023-05-10T06:35:44.278Z,11.9
2023-05-10T06:36:45.425Z,11.9
2023-05-10T06:37:46.280Z,11.9
2023-05-10T06:38:47.277Z,12
2023-05-10T06:39:48.228Z,12
2023-05-10T06:40:49.253Z,12.1
2023-05-10T06:41:50.263Z,12.2
2023-05-10T06:42:51.260Z,12.3
2023-05-10T06:43:52.249Z,12.4
2023-05-10T06:44:53.254Z,12.6
2023-05-10T06:45:54.313Z,12.8
2023-05-10T06:46:55.253Z,12.8
2023-05-10T06:47:56.194Z,12.6
2023-05-10T06:48:57.242Z,12.5
2023-05-10T06:49:58.267Z,12.5
2023-05-10T06:50:59.360Z,12.5
2023-05-10T06:52:00.266Z,12.5
2023-05-10T06:53:01.229Z,12.5
2023-05-10T06:54:02.279Z,12.6
2023-05-10T06:55:03.241Z,12.7
2023-05-10T06:56:04.427Z,12.8
2023-05-10T06:57:08.906Z,12.7
2023-05-10T06:58:06.280Z,12.7
2023-05-10T06:59:07.238Z,12.9
2023-05-10T07:00:08.322Z,12.8
2023-05-10T07:01:09.402Z,12.9
2023-05-10T07:02:11.367Z,13
2023-05-10T07:03:12.324Z,13.1
2023-05-10T07:04:13.241Z,13.1
2023-05-10T07:05:14.281Z,13.2
2023-05-10T07:06:25.747Z,13.4
2023-05-10T07:07:16.265Z,13.5
2023-05-10T07:08:17.321Z,13.6
2023-05-10T07:09:18.309Z,13.6
2023-05-10T07:10:19.278Z,13.6
2023-05-10T07:11:20.280Z,13.7
2023-05-10T07:12:21.357Z,13.8
2023-05-10T07:13:22.439Z,14
2023-05-10T07:14:23.265Z,14
2023-05-10T07:15:24.263Z,14.1
2023-05-10T07:16:25.270Z,14
2023-05-10T07:17:26.368Z,14
2023-05-10T07:18:27.384Z,13.8
2023-05-10T07:19:28.241Z,13.7
2023-05-10T07:20:29.262Z,13.7
2023-05-10T07:21:30.345Z,13.7
2023-05-10T07:22:31.251Z,13.6
2023-05-10T07:23:32.271Z,13.6
2023-05-10T07:24:33.288Z,13.6
2023-05-10T07:25:34.263Z,13.7
2023-05-10T07:26:35.260Z,13.7
2023-05-10T07:27:36.284Z,13.7
2023-05-10T07:28:37.259Z,13.8
2023-05-10T07:29:38.246Z,13.9
2023-05-10T07:30:39.313Z,14.1
2023-05-10T07:31:40.425Z,14.3
2023-05-10T07:32:41.328Z,14.4
2023-05-10T07:33:42.261Z,14.3
2023-05-10T07:34:43.284Z,14.3
2023-05-10T07:35:44.313Z,14.3
2023-05-10T07:36:45.329Z,14.4
2023-05-10T07:37:46.297Z,14.4
2023-05-10T07:38:47.271Z,14.3
2023-05-10T07:39:48.266Z,14.2
2023-05-10T07:40:49.247Z,14.2
2023-05-10T07:41:50.292Z,14.2
2023-05-10T07:42:51.332Z,14.2
2023-05-10T07:43:52.255Z,14.2
2023-05-10T07:44:53.289Z,14.1
2023-05-10T07:45:56.088Z,14.1
2023-05-10T07:46:55.290Z,14.1
2023-05-10T07:47:56.407Z,14.1
2023-05-10T07:48:57.291Z,14.1
2023-05-10T07:49:58.269Z,14.2
2023-05-10T07:50:59.293Z,14.2
2023-05-10T07:52:00.318Z,14.2
2023-05-10T07:53:01.295Z,14.4
2023-05-10T07:54:02.351Z,14.2
2023-05-10T07:55:03.251Z,14.2
2023-05-10T07:56:04.270Z,14.1
2023-05-10T07:57:05.282Z,14.1
2023-05-10T07:58:06.331Z,14.1
2023-05-10T07:59:07.255Z,14.2
2023-05-10T08:00:08.312Z,14.3
2023-05-10T08:01:09.301Z,14.5
2023-05-10T08:02:10.496Z,14.5
2023-05-10T08:03:11.407Z,14.4
2023-05-10T08:04:12.282Z,14.4
2023-05-10T08:05:13.270Z,14.4
2023-05-10T08:06:14.250Z,14.5
2023-05-10T08:07:15.294Z,14.5
2023-05-10T08:08:16.293Z,14.6
2023-05-10T08:09:17.311Z,14.7
2023-05-10T08:10:18.313Z,14.8
2023-05-10T08:11:19.322Z,15
2023-05-10T08:12:20.338Z,15.1
2023-05-10T08:13:21.259Z,15.1
2023-05-10T08:14:22.306Z,15.1
2023-05-10T08:15:23.319Z,15.1
2023-05-10T08:16:24.292Z,15.2
2023-05-10T08:17:25.305Z,15.3
2023-05-10T08:18:26.352Z,15.4
2023-05-10T08:19:27.275Z,15.5
2023-05-10T08:20:28.290Z,15.4
2023-05-10T08:21:29.302Z,15.5
2023-05-10T08:22:32.956Z,15.4
2023-05-10T08:23:31.279Z,15.4
2023-05-10T08:24:32.373Z,15.4
2023-05-10T08:25:33.381Z,15.4
2023-05-10T08:26:34.306Z,15.3
2023-05-10T08:27:35.345Z,15.3
2023-05-10T08:28:36.298Z,15.4
2023-05-10T08:29:46.559Z,15.5
2023-05-10T08:30:39.301Z,15.6
2023-05-10T08:31:40.390Z,15.7
2023-05-10T08:32:41.365Z,15.7
2023-05-10T08:33:43.044Z,15.8
2023-05-10T08:34:43.298Z,15.9
2023-05-10T08:35:44.273Z,15.9
2023-05-10T08:36:45.361Z,16
2023-05-10T08:37:46.382Z,16
2023-05-10T08:38:47.275Z,16
2023-05-10T08:39:48.378Z,16
2023-05-10T08:40:49.263Z,16
2023-05-10T08:41:50.255Z,16.2
2023-05-10T08:42:51.342Z,16.3
2023-05-10T08:43:52.320Z,16.4
2023-05-10T08:44:53.300Z,16.4
2023-05-10T08:45:54.276Z,16.3
2023-05-10T08:46:55.501Z,16.2
2023-05-10T08:47:56.345Z,16.1
2023-05-10T08:48:57.319Z,15.9
2023-05-10T08:49:58.280Z,15.8
2023-05-10T08:50:59.283Z,15.8
2023-05-10T08:52:00.390Z,15.8
2023-05-10T08:53:01.303Z,15.9
2023-05-10T08:54:02.322Z,15.9
2023-05-10T08:55:03.324Z,15.9
2023-05-10T08:56:04.359Z,16
2023-05-10T08:57:05.361Z,16
2023-05-10T08:58:06.301Z,16
2023-05-10T08:59:07.320Z,16
2023-05-10T09:00:08.338Z,16.1
2023-05-10T09:01:09.478Z,16.1
2023-05-10T09:02:10.320Z,16.3
2023-05-10T09:03:11.347Z,16.4
2023-05-10T09:04:12.422Z,16.5
2023-05-10T09:05:13.352Z,16.6
2023-05-10T09:06:14.286Z,16.6
2023-05-10T09:07:15.467Z,16.6
2023-05-10T09:08:16.346Z,16.6
2023-05-10T09:09:17.379Z,16.6
2023-05-10T09:10:18.351Z,16.7
2023-05-10T09:11:19.331Z,16.7
2023-05-10T09:12:20.385Z,16.8
2023-05-10T09:13:21.402Z,16.9
2023-05-10T09:14:22.803Z,17
2023-05-10T09:15:24.345Z,17
2023-05-10T09:16:25.405Z,17.1
2023-05-10T09:17:26.525Z,17.1
2023-05-10T09:18:28.083Z,17.1
2023-05-10T09:19:28.430Z,17
2023-05-10T09:20:29.325Z,17
2023-05-10T09:21:30.294Z,17
2023-05-10T09:22:31.342Z,16.9
2023-05-10T09:23:32.314Z,17
2023-05-10T09:24:33.346Z,17.1
2023-05-10T09:25:34.340Z,17.2
2023-05-10T09:26:35.338Z,17.4
2023-05-10T09:27:36.345Z,17.6
2023-05-10T09:28:37.361Z,17.7
2023-05-10T09:29:38.350Z,17.7
2023-05-10T09:30:39.377Z,17.6
2023-05-10T09:31:40.340Z,17.5
2023-05-10T09:32:41.524Z,17.5
2023-05-10T09:33:42.462Z,17.4
2023-05-10T09:34:43.339Z,17.3
2023-05-10T09:35:44.380Z,17.3
2023-05-10T09:36:45.401Z,17.2
2023-05-10T09:37:46.368Z,17.2
2023-05-10T09:38:47.406Z,17.3
2023-05-10T09:39:48.387Z,17.3
2023-05-10T09:40:49.320Z,17.3
2023-05-10T09:41:50.377Z,17.4
2023-05-10T09:42:51.425Z,17.3
2023-05-10T09:43:52.352Z,17.4
2023-05-10T09:44:53.307Z,17.5
2023-05-10T09:45:54.399Z,17.6
2023-05-10T09:46:55.360Z,17.8
2023-05-10T09:47:56.455Z,17.8
2023-05-10T09:48:57.359Z,17.8
2023-05-10T09:49:58.362Z,17.7
2023-05-10T09:50:59.341Z,17.7
2023-05-10T09:52:00.378Z,17.7
2023-05-10T09:53:01.380Z,17.8
2023-05-10T09:54:02.640Z,17.9
2023-05-10T09:55:03.365Z,18.1
2023-05-10T09:56:04.381Z,18.1
2023-05-10T09:57:05.404Z,18.1
2023-05-10T09:58:06.380Z,18.1
2023-05-10T09:59:07.318Z,18
2023-05-10T10:00:08.402Z,18.1
2023-05-10T10:01:09.405Z,18.1
2023-05-10T10:02:10.363Z,18.1
2023-05-10T10:03:11.535Z,18
2023-05-10T10:04:12.444Z,18.1
2023-05-10T10:05:13.404Z,18.1
2023-05-10T10:06:22.812Z,18.2
2023-05-10T10:07:15.427Z,18.3
2023-05-10T10:08:16.515Z,18.5
2023-05-10T10:09:18.416Z,18.7
2023-05-10T10:10:19.398Z,18.8
2023-05-10T10:11:20.357Z,18.9
2023-05-10T10:12:21.393Z,18.9
2023-05-10T10:13:22.357Z,18.8
2023-05-10T10:14:23.348Z,18.6
2023-05-10T10:15:24.403Z,18.5
2023-05-10T10:16:25.571Z,18.3
2023-05-10T10:17:26.435Z,18.2
2023-05-10T10:18:27.451Z,18.1
2023-05-10T10:19:28.338Z,18.1
2023-05-10T10:20:29.384Z,18.2
2023-05-10T10:21:30.336Z,18.4
2023-05-10T10:22:31.365Z,18.6
2023-05-10T10:23:32.366Z,18.6
2023-05-10T10:24:33.371Z,18.6
2023-05-10T10:25:34.455Z,18.7
2023-05-10T10:26:35.380Z,18.8
2023-05-10T10:27:36.600Z,18.7
2023-05-10T10:28:37.332Z,18.7
2023-05-10T10:29:38.354Z,18.7
2023-05-10T10:30:39.401Z,18.8
2023-05-10T10:31:40.431Z,18.9
2023-05-10T10:32:41.379Z,19.1
2023-05-10T10:33:42.408Z,19.2
2023-05-10T10:34:43.394Z,19.3
2023-05-10T10:35:44.366Z,19.2
2023-05-10T10:36:45.532Z,19.1
2023-05-10T10:37:46.462Z,18.9
2023-05-10T10:38:47.405Z,18.8
2023-05-10T10:39:48.456Z,18.8
2023-05-10T10:40:49.482Z,18.8
2023-05-10T10:41:50.409Z,18.7
2023-05-10T10:42:51.366Z,18.6
2023-05-10T10:43:52.423Z,18.6
2023-05-10T10:44:53.423Z,18.7
2023-05-10T10:45:54.930Z,18.8
2023-05-10T10:46:56.466Z,19
2023-05-10T10:47:57.425Z,19
2023-05-10T10:48:58.410Z,18.9
2023-05-10T10:49:59.430Z,19
2023-05-10T10:51:00.447Z,19
2023-05-10T10:52:01.427Z,18.9
2023-05-10T10:53:02.401Z,18.9
2023-05-10T10:54:03.481Z,18.9
2023-05-10T10:55:04.418Z,19.1
2023-05-10T10:56:05.492Z,19.2
2023-05-10T10:57:06.458Z,19.4
2023-05-10T10:58:07.372Z,19.6
2023-05-10T10:59:08.391Z,19.6
2023-05-10T11:00:09.483Z,19.6
2023-05-10T11:01:10.405Z,19.7
2023-05-10T11:02:11.389Z,19.6
2023-05-10T11:03:12.531Z,19.6
2023-05-10T11:04:13.477Z,19.4
2023-05-10T11:05:14.491Z,19.2
2023-05-10T11:06:15.356Z,18.9
2023-05-10T11:07:16.401Z,18.7
2023-05-10T11:08:17.467Z,18.5
2023-05-10T11:09:18.420Z,18.5
2023-05-10T11:10:19.412Z,18.5
2023-05-10T11:11:20.398Z,18.7
2023-05-10T11:12:21.399Z,18.8
2023-05-10T11:13:22.390Z,19
2023-05-10T11:14:23.423Z,19.1
2023-05-10T11:15:24.463Z,19.3
2023-05-10T11:16:25.439Z,19.5
2023-05-10T11:17:26.458Z,19.6
2023-05-10T11:18:27.613Z,19.6
2023-05-10T11:19:28.400Z,19.7
2023-05-10T11:20:29.379Z,19.6
2023-05-10T11:21:30.400Z,19.5
2023-05-10T11:22:31.453Z,19.5
2023-05-10T11:23:32.387Z,19.6
2023-05-10T11:24:33.421Z,19.6
2023-05-10T11:25:34.408Z,19.5
2023-05-10T11:26:35.388Z,19.4
2023-05-10T11:27:37.295Z,19.3
2023-05-10T11:28:39.405Z,19.4
2023-05-10T11:29:40.419Z,19.4
2023-05-10T11:30:41.552Z,19.3
2023-05-10T11:31:42.438Z,19.4
2023-05-10T11:32:43.702Z,19.4
2023-05-10T11:33:44.449Z,19.4
2023-05-10T11:34:45.479Z,19.5
2023-05-10T11:35:46.401Z,19.6
2023-05-10T11:36:47.369Z,19.8
2023-05-10T11:37:48.482Z,20
2023-05-10T11:38:49.390Z,20.1
2023-05-10T11:39:50.398Z,20.1
2023-05-10T11:40:51.431Z,20.1
2023-05-10T11:41:52.422Z,20.1
2023-05-10T11:42:53.467Z,20.2
2023-05-10T11:43:54.431Z,20.3
2023-05-10T11:44:55.428Z,20.1
2023-05-10T11:45:56.365Z,20.1
2023-05-10T11:46:57.422Z,20.1
2023-05-10T11:47:58.929Z,20.1
2023-05-10T11:49:00.423Z,20
2023-05-10T11:50:01.489Z,19.9
2023-05-10T11:51:02.453Z,19.8
2023-05-10T11:52:03.445Z,19.6
2023-05-10T11:53:04.420Z,19.6
2023-05-10T11:54:05.602Z,19.5
2023-05-10T11:55:07.444Z,19.6
2023-05-10T11:56:08.440Z,19.7
2023-05-10T11:57:09.422Z,19.8
2023-05-10T11:58:10.448Z,20
2023-05-10T11:59:11.462Z,20.2
2023-05-10T12:00:12.445Z,20.2
2023-05-10T12:01:13.579Z,20.2
2023-05-10T12:02:14.481Z,20.1
2023-05-10T12:03:15.722Z,19.7
2023-05-10T12:04:16.483Z,19.4
2023-05-10T12:05:17.404Z,19.2
2023-05-10T12:06:18.397Z,19.1
2023-05-10T12:07:19.398Z,19
2023-05-10T12:08:20.501Z,19.1
2023-05-10T12:09:31.847Z,19.1
2023-05-10T12:10:22.480Z,19.3
2023-05-10T12:11:23.445Z,19.4
2023-05-10T12:12:24.438Z,19.5
2023-05-10T12:13:25.479Z,19.6
2023-05-10T12:14:26.440Z,19.6
2023-05-10T12:15:27.480Z,19.5
2023-05-10T12:16:28.435Z,19.4
2023-05-10T12:17:29.432Z,19.4
2023-05-10T12:18:30.447Z,19.4
2023-05-10T12:19:31.479Z,19.4
2023-05-10T12:20:32.424Z,19.4
2023-05-10T12:21:33.423Z,19.3
2023-05-10T12:22:34.461Z,19.3
2023-05-10T12:23:35.469Z,19.3
2023-05-10T12:24:37.520Z,19.5
2023-05-10T12:25:39.458Z,19.6
2023-05-10T12:28:12.447Z,19.7
2023-05-10T12:29:13.551Z,19.7
2023-05-10T12:30:14.457Z,19.6
2023-05-10T12:31:15.523Z,19.7
2023-05-10T12:32:16.499Z,19.7
2023-05-10T12:33:17.415Z,19.5
2023-05-10T12:34:18.526Z,19.4
2023-05-10T12:35:19.539Z,19.6
2023-05-10T12:36:20.468Z,19.8
2023-05-10T12:37:21.461Z,20
2023-05-10T12:38:22.445Z,20.2
2023-05-10T12:39:23.504Z,20.3
2023-05-10T12:40:24.429Z,20.3
2023-05-10T12:41:25.566Z,20.4
2023-05-10T12:42:26.461Z,20.4
2023-05-10T12:43:27.446Z,20.3
2023-05-10T12:44:28.530Z,20.3
2023-05-10T12:45:29.424Z,20.2
2023-05-10T12:46:30.563Z,20.1
2023-05-10T12:47:31.481Z,19.9
2023-05-10T12:48:32.452Z,19.7
2023-05-10T12:49:33.520Z,19.5
2023-05-10T12:50:34.426Z,19.4
2023-05-10T12:51:35.414Z,19.5
2023-05-10T12:52:36.432Z,19.7
2023-05-10T12:53:37.433Z,19.9
2023-05-10T12:54:38.444Z,20.2
2023-05-10T12:55:39.462Z,20.5
2023-05-10T12:56:40.466Z,20.6
2023-05-10T12:57:41.465Z,20.5
2023-05-10T12:58:42.488Z,20.2
2023-05-10T12:59:43.424Z,20
2023-05-10T13:00:44.473Z,20
2023-05-10T13:01:45.528Z,20
2023-05-10T13:02:46.471Z,20.1
2023-05-10T13:03:47.473Z,20.2
2023-05-10T13:04:49.575Z,20.1
2023-05-10T13:05:49.424Z,20.1
2023-05-10T13:06:50.438Z,20.1
2023-05-10T13:07:51.435Z,19.9
2023-05-10T13:08:52.499Z,20
2023-05-10T13:09:53.481Z,20
2023-05-10T13:10:54.464Z,19.9
2023-05-10T13:11:55.520Z,19.8
2023-05-10T13:12:56.439Z,19.8
2023-05-10T13:13:57.502Z,19.9
2023-05-10T13:14:58.482Z,20.1
2023-05-10T13:15:59.475Z,20.4
2023-05-10T13:17:00.512Z,20.7
2023-05-10T13:18:01.517Z,20.9
2023-05-10T13:19:02.494Z,21.1
2023-05-10T13:20:03.539Z,21.3
2023-05-10T13:21:04.455Z,21.4
2023-05-10T13:22:05.508Z,21.5
2023-05-10T13:23:06.450Z,21.4
2023-05-10T13:24:07.492Z,21.2
2023-05-10T13:25:08.511Z,21.1
2023-05-10T13:26:09.445Z,21
2023-05-10T13:27:10.456Z,20.8
2023-05-10T13:28:11.442Z,20.6
2023-05-10T13:29:12.447Z,20.6
2023-05-10T13:30:13.789Z,20.4
2023-05-10T13:31:14.457Z,20.3
2023-05-10T13:32:15.456Z,20.2
2023-05-10T13:33:16.728Z,20.1
2023-05-10T13:34:18.459Z,20.1
2023-05-10T13:35:20.598Z,20
2023-05-10T13:36:21.485Z,19.9
2023-05-10T13:37:22.697Z,19.6
2023-05-10T13:38:24.495Z,19.4
2023-05-10T13:39:25.494Z,19.3
2023-05-10T13:40:26.533Z,19.3
2023-05-10T13:41:27.515Z,19.3
2023-05-10T13:42:28.463Z,19.2
2023-05-10T13:43:29.490Z,19.1
2023-05-10T13:44:30.486Z,19
2023-05-10T13:45:31.480Z,19.1
2023-05-10T13:46:32.692Z,19.2
2023-05-10T13:47:33.769Z,19.3
2023-05-10T13:48:35.716Z,19.4
2023-05-10T13:49:35.472Z,19.3
2023-05-10T13:50:36.494Z,19.2